Time;durP1;ratioP1;P1;durP2;ratioP2;P2;SDS_P1;SDS_P2;PMS_P1;PMS_P2;Temp;Humidity;BMP_temperature;BMP_pressure;BME280_temperature;BME280_humidity;BME280_pressure;Samples;Min_cycle;Max_cycle;Signal;HPM_P1;HPM_P2
2022/04/23 00:01:20;;;;;;;32.47;24.10;;;7.90;99.90;;;;;;5019724;28;20211;-79
2022/04/23 00:03:46;;;;;;;32.23;24.83;;;7.90;99.90;;;;;;5017961;28;20733;-79
2022/04/23 00:06:12;;;;;;;28.17;22.60;;;;;;;;;;5019496;28;20187;-79
2022/04/23 00:08:38;;;;;;;35.27;24.00;;;7.90;99.90;;;;;;5019978;28;20625;-79
2022/04/23 00:11:03;;;;;;;30.03;23.57;;;8.00;99.90;;;;;;5018678;28;20190;-79
2022/04/23 00:13:29;;;;;;;33.00;25.23;;;8.00;99.90;;;;;;5019200;28;20195;-79
2022/04/23 00:15:55;;;;;;;32.10;23.67;;;8.00;99.90;;;;;;5017249;28;20190;-79
2022/04/23 00:18:20;;;;;;;29.73;24.13;;;8.00;99.90;;;;;;5019462;28;20174;-79
2022/04/23 00:20:46;;;;;;;34.40;25.23;;;8.00;99.90;;;;;;5018216;28;20188;-79
2022/04/23 00:23:12;;;;;;;34.07;24.30;;;8.00;99.90;;;;;;5017723;28;20308;-79
2022/04/23 00:25:39;;;;;;;36.53;25.00;;;8.00;99.90;;;;;;5019246;28;20204;-79
2022/04/23 00:28:05;;;;;;;33.10;25.80;;;8.00;99.90;;;;;;5017713;28;20179;-79
2022/04/23 00:30:32;;;;;;;29.97;23.17;;;8.00;99.90;;;;;;5018502;28;20559;-79
2022/04/23 00:33:01;;;;;;;31.50;24.00;;;8.00;99.90;;;;;;5018598;28;20219;-79
2022/04/23 00:35:27;;;;;;;31.60;24.27;;;8.00;99.90;;;;;;5018579;28;20204;-79
2022/04/23 00:37:53;;;;;;;31.57;24.53;;;8.00;99.90;;;;;;5017228;28;20211;-79
2022/04/23 00:40:21;;;;;;;31.33;25.37;;;8.00;99.90;;;;;;5017656;28;20195;-79
2022/04/23 00:42:52;;;;;;;31.63;23.77;;;8.00;99.90;;;;;;5018440;28;20199;-80
2022/04/23 00:45:19;;;;;;;31.47;24.83;;;8.00;99.90;;;;;;5016625;28;20203;-79
2022/04/23 00:47:44;;;;;;;30.80;23.23;;;8.10;99.90;;;;;;5019675;28;20239;-79
2022/04/23 00:50:11;;;;;;;33.97;24.20;;;8.10;99.90;;;;;;5018427;28;20175;-79
2022/04/23 00:52:37;;;;;;;29.90;24.13;;;8.10;99.90;;;;;;5017645;28;20561;-79
2022/04/23 00:55:04;;;;;;;30.93;24.63;;;8.00;99.90;;;;;;5017900;28;20184;-79
2022/04/23 00:57:33;;;;;;;32.33;23.40;;;8.00;99.90;;;;;;5018574;28;20636;-79
2022/04/23 01:00:03;;;;;;;28.57;22.60;;;8.00;99.90;;;;;;5018274;28;20187;-80
2022/04/23 01:02:29;;;;;;;33.70;24.80;;;8.10;99.90;;;;;;5018482;28;20265;-79
2022/04/23 01:04:54;;;;;;;32.20;23.57;;;8.00;99.90;;;;;;5017193;28;20244;-78
2022/04/23 01:07:20;;;;;;;33.57;23.83;;;8.00;99.90;;;;;;5017962;28;20179;-79
2022/04/23 01:09:48;;;;;;;32.23;24.43;;;8.00;99.90;;;;;;5018317;28;20182;-79
2022/04/23 01:12:14;;;;;;;28.17;22.47;;;8.00;99.90;;;;;;5017476;28;20266;-79
2022/04/23 01:15:04;;;;;;;27.17;21.80;;;8.00;99.90;;;;;;5025924;28;20194;-78
2022/04/23 01:17:29;;;;;;;29.37;22.93;;;7.90;99.90;;;;;;5031587;28;20182;-78
2022/04/23 01:19:55;;;;;;;29.00;23.37;;;7.90;99.90;;;;;;5029250;28;20182;-78
2022/04/23 01:22:25;;;;;;;28.50;22.77;;;7.80;99.90;;;;;;5019404;28;20637;-78
2022/04/23 01:24:51;;;;;;;26.30;21.33;;;7.90;99.90;;;;;;5017195;28;20649;-79
2022/04/23 01:27:18;;;;;;;25.33;20.67;;;7.90;99.90;;;;;;5016801;28;20171;-78
2022/04/23 01:29:44;;;;;;;27.93;21.63;;;7.90;99.90;;;;;;5015533;28;20572;-79
2022/04/23 01:32:10;;;;;;;25.17;20.33;;;7.80;99.90;;;;;;5016618;28;20245;-78
2022/04/23 01:34:36;;;;;;;29.00;20.73;;;7.80;99.90;;;;;;5014766;28;20209;-78
2022/04/23 01:37:02;;;;;;;24.53;19.80;;;7.80;99.90;;;;;;5016115;28;20558;-78
2022/04/23 01:39:28;;;;;;;27.80;22.17;;;7.80;99.90;;;;;;5015072;28;20194;-78
2022/04/23 01:41:54;;;;;;;27.47;21.33;;;7.70;99.90;;;;;;5016064;28;20199;-79
2022/04/23 01:44:20;;;;;;;27.60;21.80;;;;;;;;;;5015520;28;20686;-78
2022/04/23 01:46:46;;;;;;;25.80;20.87;;;7.70;99.90;;;;;;5015410;28;20575;-78
2022/04/23 01:49:11;;;;;;;26.93;22.03;;;7.70;99.90;;;;;;5015683;28;20699;-79
2022/04/23 01:51:37;;;;;;;27.13;21.50;;;7.70;99.90;;;;;;5015507;28;20206;-79
2022/04/23 01:54:03;;;;;;;25.93;20.70;;;7.70;99.90;;;;;;5013872;28;20679;-78
2022/04/23 01:56:28;;;;;;;28.23;20.90;;;7.70;99.90;;;;;;5015259;28;20189;-78
2022/04/23 01:58:54;;;;;;;26.17;20.90;;;7.70;99.90;;;;;;5015278;28;20628;-79
2022/04/23 02:01:19;;;;;;;25.67;20.97;;;7.80;99.90;;;;;;5014335;28;20210;-79
2022/04/23 02:03:46;;;;;;;28.23;21.50;;;7.70;99.90;;;;;;5012882;28;20186;-79
2022/04/23 02:06:15;;;;;;;26.37;20.67;;;7.70;99.90;;;;;;5017227;28;20625;-79
2022/04/23 02:08:41;;;;;;;28.30;21.97;;;7.70;99.90;;;;;;5016872;28;20723;-80
2022/04/23 02:11:07;;;;;;;27.33;21.03;;;7.70;99.90;;;;;;5016732;28;20258;-78
2022/04/23 02:13:34;;;;;;;27.90;21.13;;;7.70;99.90;;;;;;5016688;28;20249;-79
2022/04/23 02:16:00;;;;;;;24.60;20.67;;;7.90;99.90;;;;;;5017290;28;20241;-78
2022/04/23 02:18:28;;;;;;;27.27;21.37;;;7.60;99.90;;;;;;5015547;28;20545;-79
2022/04/23 02:20:53;;;;;;;29.83;21.30;;;7.60;99.90;;;;;;5015276;28;20229;-79
2022/04/23 02:23:19;;;;;;;28.20;21.90;;;7.60;99.90;;;;;;5016754;28;20672;-79
2022/04/23 02:25:45;;;;;;;31.03;21.70;;;7.80;99.90;;;;;;5017285;28;20265;-79
2022/04/23 02:28:10;;;;;;;27.53;21.23;;;7.70;99.90;;;;;;5016991;28;20182;-80
2022/04/23 02:30:36;;;;;;;28.83;21.73;;;7.60;99.90;;;;;;5016840;28;20179;-79
2022/04/23 02:33:02;;;;;;;30.00;22.40;;;7.60;99.90;;;;;;5016137;28;20236;-79
2022/04/23 02:35:28;;;;;;;29.97;21.30;;;7.40;99.90;;;;;;5015367;28;20312;-79
2022/04/23 02:37:56;;;;;;;27.47;20.83;;;7.50;99.90;;;;;;5016599;28;20197;-79
2022/04/23 02:40:23;;;;;;;29.43;21.37;;;7.30;99.90;;;;;;5019588;28;20185;-79
2022/04/23 02:42:51;;;;;;;26.60;20.90;;;7.70;99.90;;;;;;5020324;28;20203;-79
2022/04/23 02:45:18;;;;;;;29.37;22.97;;;7.50;99.90;;;;;;5020748;28;20195;-79
2022/04/23 02:47:50;;;;;;;30.03;22.90;;;7.50;99.90;;;;;;5019350;28;20178;-79
2022/04/23 02:50:26;;;;;;;29.80;22.90;;;7.30;99.90;;;;;;5021176;28;20176;-78
2022/04/23 02:52:55;;;;;;;28.73;22.50;;;7.50;99.90;;;;;;5019500;28;20735;-79
2022/04/23 02:55:22;;;;;;;34.37;22.67;;;7.50;99.90;;;;;;5019506;28;20213;-79
2022/04/23 02:57:48;;;;;;;28.37;21.33;;;7.60;99.90;;;;;;5019864;28;20182;-79
2022/04/23 03:00:14;;;;;;;31.77;22.83;;;7.30;99.90;;;;;;5020834;28;20261;-79
2022/04/23 03:02:40;;;;;;;29.33;22.07;;;7.30;99.90;;;;;;5019732;28;20199;-79
2022/04/23 03:05:10;;;;;;;30.73;23.13;;;7.60;99.90;;;;;;5020185;28;20294;-79
2022/04/23 03:07:36;;;;;;;30.33;22.87;;;7.50;99.90;;;;;;5021894;28;20170;-79
2022/04/23 03:10:06;;;;;;;30.23;23.60;;;7.50;99.90;;;;;;5023191;28;20175;-78
2022/04/23 03:12:32;;;;;;;30.47;23.13;;;7.50;99.90;;;;;;5033425;28;20197;-78
2022/04/23 03:14:58;;;;;;;32.20;23.23;;;7.70;99.90;;;;;;5030783;28;20190;-78
2022/04/23 03:17:23;;;;;;;32.73;21.93;;;7.50;99.90;;;;;;5027097;28;20183;-79
2022/04/23 03:19:49;;;;;;;32.50;23.20;;;7.50;99.90;;;;;;5019371;28;20196;-78
2022/04/23 03:22:16;;;;;;;31.07;23.53;;;7.20;99.90;;;;;;5018172;28;20205;-77
2022/04/23 03:24:41;;;;;;;36.90;24.20;;;7.40;99.90;;;;;;5017441;28;20248;-78
2022/04/23 03:27:07;;;;;;;32.53;24.33;;;7.40;99.90;;;;;;5016350;28;20265;-80
2022/04/23 03:29:33;;;;;;;32.43;23.33;;;7.40;99.90;;;;;;5016077;28;20185;-78
2022/04/23 03:31:59;;;;;;;33.30;24.43;;;7.60;99.90;;;;;;5015880;28;20231;-78
2022/04/23 03:34:25;;;;;;;31.30;23.20;;;7.40;99.90;;;;;;5016950;28;20185;-78
2022/04/23 03:36:51;;;;;;;35.80;23.20;;;7.40;99.90;;;;;;5017685;28;20183;-79
2022/04/23 03:39:16;;;;;;;35.30;23.97;;;7.60;99.90;;;;;;5016493;28;20187;-78
2022/04/23 03:41:43;;;;;;;32.77;23.40;;;;;;;;;;5017375;28;20218;-78
2022/04/23 03:44:09;;;;;;;31.30;22.30;;;7.30;99.90;;;;;;5016119;28;20704;-78
2022/04/23 03:46:35;;;;;;;33.27;24.30;;;7.40;99.90;;;;;;5017407;28;20171;-79
2022/04/23 03:49:01;;;;;;;35.83;24.20;;;;;;;;;;5016425;28;20179;-78
2022/04/23 03:51:26;;;;;;;35.17;23.47;;;7.30;99.90;;;;;;5015302;28;20739;-78
2022/04/23 03:53:52;;;;;;;34.60;23.57;;;7.20;99.90;;;;;;5016919;28;20309;-78
2022/04/23 03:56:18;;;;;;;33.03;23.57;;;7.20;99.90;;;;;;5017181;28;20171;-79
2022/04/23 03:58:44;;;;;;;32.80;23.73;;;7.10;99.90;;;;;;5017407;28;20176;-78
2022/04/23 04:01:10;;;;;;;37.13;24.47;;;;;;;;;;5017673;28;20179;-79
2022/04/23 04:03:36;;;;;;;34.87;24.23;;;7.20;99.90;;;;;;5017738;28;20241;-78
2022/04/23 04:06:02;;;;;;;37.43;24.43;;;;;;;;;;5016271;28;20175;-79
2022/04/23 04:08:28;;;;;;;34.00;23.30;;;6.90;99.90;;;;;;5016099;28;20180;-78
2022/04/23 04:10:54;;;;;;;34.07;23.07;;;6.90;99.90;;;;;;5020065;28;20512;-79
2022/04/23 04:13:20;;;;;;;35.03;23.47;;;6.90;99.90;;;;;;5019019;28;20201;-79
2022/04/23 04:15:47;;;;;;;35.53;24.27;;;6.90;99.90;;;;;;5017477;28;20176;-78
2022/04/23 04:18:13;;;;;;;32.73;21.53;;;6.90;99.90;;;;;;5017220;28;20252;-78
2022/04/23 04:20:40;;;;;;;35.60;23.77;;;6.80;99.90;;;;;;5015816;28;20667;-78
2022/04/23 04:23:06;;;;;;;38.03;26.10;;;6.80;99.90;;;;;;5016034;28;20194;-79
2022/04/23 04:25:32;;;;;;;33.20;23.03;;;7.00;99.90;;;;;;5017292;28;20223;-78
2022/04/23 04:28:02;;;;;;;35.10;22.67;;;6.80;99.90;;;;;;5015430;28;20265;-78
2022/04/23 04:30:27;;;;;;;34.33;22.17;;;6.70;99.90;;;;;;5015096;28;20302;-78
2022/04/23 04:32:53;;;;;;;30.10;21.40;;;6.80;99.90;;;;;;5014555;28;20254;-78
2022/04/23 04:35:19;;;;;;;34.10;22.70;;;6.80;99.90;;;;;;5016823;28;20183;-78
2022/04/23 04:37:45;;;;;;;36.97;22.97;;;;;;;;;;5016195;28;20559;-78
2022/04/23 04:40:11;;;;;;;31.63;21.73;;;6.80;99.90;;;;;;5016751;28;20195;-79
2022/04/23 04:42:36;;;;;;;30.57;20.57;;;6.80;99.90;;;;;;5016696;28;20210;-78
2022/04/23 04:45:03;;;;;;;34.10;21.73;;;6.80;99.90;;;;;;5015762;28;20711;-78
2022/04/23 04:47:29;;;;;;;29.63;20.30;;;6.70;99.90;;;;;;5015832;28;20178;-78
2022/04/23 04:49:54;;;;;;;32.80;20.60;;;6.80;99.90;;;;;;5015953;28;20172;-78
2022/04/23 04:52:20;;;;;;;31.43;20.80;;;6.60;99.90;;;;;;5015865;28;20249;-79
2022/04/23 04:54:46;;;;;;;30.73;20.13;;;6.60;99.90;;;;;;5015796;28;20234;-78
2022/04/23 04:57:12;;;;;;;32.73;22.13;;;;;;;;;;5016330;28;20527;-78
2022/04/23 04:59:38;;;;;;;31.57;22.37;;;6.90;99.90;;;;;;5015245;28;20274;-78
2022/04/23 05:02:05;;;;;;;31.87;22.20;;;6.60;99.90;;;;;;5015646;28;20673;-78
2022/04/23 05:04:31;;;;;;;36.33;23.27;;;6.60;99.90;;;;;;5016499;28;20202;-79
2022/04/23 05:06:57;;;;;;;32.47;21.43;;;6.60;99.90;;;;;;5031198;28;20238;-78
2022/04/23 05:09:23;;;;;;;30.60;20.67;;;;;;;;;;5030661;28;20174;-78
2022/04/23 05:11:49;;;;;;;32.30;22.23;;;6.60;99.90;;;;;;5031412;28;20205;-78
2022/04/23 05:14:16;;;;;;;32.60;20.93;;;6.70;99.90;;;;;;5028986;28;20175;-79
2022/04/23 05:16:43;;;;;;;29.40;19.43;;;6.60;99.90;;;;;;5018022;28;20174;-79
2022/04/23 05:19:09;;;;;;;27.87;19.87;;;6.40;99.90;;;;;;5017804;28;20175;-79
2022/04/23 05:21:35;;;;;;;28.63;19.33;;;;;;;;;;5016324;28;20203;-79
2022/04/23 05:24:00;;;;;;;30.63;19.53;;;6.60;99.90;;;;;;5017910;28;20289;-79
2022/04/23 05:26:26;;;;;;;27.70;19.07;;;6.70;99.90;;;;;;5017876;28;20176;-79
2022/04/23 05:28:52;;;;;;;29.13;18.80;;;6.50;99.90;;;;;;5016630;28;20179;-79
2022/04/23 05:31:17;;;;;;;29.13;19.03;;;6.60;99.90;;;;;;5018440;28;20181;-80
2022/04/23 05:33:43;;;;;;;26.43;18.63;;;6.50;99.90;;;;;;5017946;28;20170;-79
2022/04/23 05:36:09;;;;;;;25.47;18.60;;;6.50;99.90;;;;;;5018227;28;20198;-80
2022/04/23 05:38:35;;;;;;;24.43;17.10;;;6.50;99.90;;;;;;5017025;28;20194;-80
2022/04/23 05:41:01;;;;;;;29.03;17.97;;;6.30;99.90;;;;;;5018284;28;20198;-79
2022/04/23 05:43:27;;;;;;;26.70;16.70;;;6.50;99.90;;;;;;5018394;28;20219;-80
2022/04/23 05:45:57;;;;;;;27.30;17.17;;;;;;;;;;5018280;28;20722;-80
2022/04/23 05:48:23;;;;;;;26.00;17.90;;;6.20;99.90;;;;;;5018180;28;20203;-80
2022/04/23 05:50:48;;;;;;;27.07;17.97;;;6.40;99.90;;;;;;5018896;28;20230;-79
2022/04/23 05:53:14;;;;;;;25.23;17.77;;;6.50;99.90;;;;;;5019282;28;20199;-79
2022/04/23 05:55:39;;;;;;;22.80;17.20;;;6.40;99.90;;;;;;5024287;28;20183;-80
2022/04/23 05:58:05;;;;;;;23.37;16.47;;;6.40;99.90;;;;;;5017133;28;20183;-79
2022/04/23 06:00:31;;;;;;;23.73;16.07;;;6.40;99.90;;;;;;5018616;28;20547;-80
2022/04/23 06:02:56;;;;;;;28.60;18.67;;;6.60;99.90;;;;;;5017865;28;20589;-79
2022/04/23 06:05:22;;;;;;;26.17;17.93;;;6.70;99.90;;;;;;5017501;28;20227;-79
2022/04/23 06:07:48;;;;;;;26.40;17.37;;;;;;;;;;5015856;28;20655;-79
2022/04/23 06:10:14;;;;;;;21.77;16.30;;;6.40;99.90;;;;;;5017126;28;20181;-80
2022/04/23 06:12:40;;;;;;;23.63;16.40;;;6.40;99.90;;;;;;5016797;28;20275;-79
2022/04/23 06:15:06;;;;;;;24.30;16.43;;;6.60;99.90;;;;;;5016157;28;20187;-79
2022/04/23 06:17:32;;;;;;;27.20;17.70;;;6.60;99.90;;;;;;5015433;28;20184;-79
2022/04/23 06:19:59;;;;;;;25.83;16.67;;;6.80;99.90;;;;;;5017040;28;20238;-79
2022/04/23 06:22:25;;;;;;;25.60;16.73;;;;;;;;;;5015261;28;20211;-80
2022/04/23 06:24:52;;;;;;;28.77;18.97;;;;;;;;;;5014990;28;20572;-79
2022/04/23 06:27:18;;;;;;;24.00;16.03;;;6.80;99.90;;;;;;5018929;28;20172;-80
2022/04/23 06:29:44;;;;;;;24.37;16.43;;;6.80;99.90;;;;;;5017003;28;20309;-79
2022/04/23 06:32:10;;;;;;;20.57;14.93;;;;;;;;;;5015102;28;20233;-79
2022/04/23 06:34:37;;;;;;;20.97;14.77;;;6.60;99.90;;;;;;5015493;28;20200;-79
2022/04/23 06:37:06;;;;;;;23.43;15.03;;;6.60;99.90;;;;;;5014606;28;20184;-78
2022/04/23 06:39:32;;;;;;;22.80;15.03;;;6.50;99.90;;;;;;5018164;28;20171;-80
2022/04/23 06:41:58;;;;;;;21.00;15.23;;;6.70;99.90;;;;;;5017600;28;20206;-79
2022/04/23 06:44:24;;;;;;;18.60;13.87;;;6.60;99.90;;;;;;5017023;28;20210;-79
2022/04/23 06:46:50;;;;;;;20.77;15.40;;;6.40;99.90;;;;;;5018556;28;20527;-79
2022/04/23 06:49:16;;;;;;;21.93;14.33;;;;;;;;;;5016147;28;20182;-79
2022/04/23 06:51:41;;;;;;;22.53;15.07;;;6.70;99.90;;;;;;5017190;28;20207;-80
2022/04/23 06:54:08;;;;;;;21.37;14.07;;;;;;;;;;5016202;28;20188;-80
2022/04/23 06:56:33;;;;;;;19.30;13.13;;;6.60;99.90;;;;;;5016451;28;20642;-79
2022/04/23 06:59:00;;;;;;;17.70;13.90;;;6.40;99.90;;;;;;5014183;28;20183;-80
2022/04/23 07:01:26;;;;;;;20.33;13.90;;;6.60;99.90;;;;;;5015620;28;20173;-81
2022/04/23 07:03:52;;;;;;;19.97;13.57;;;6.50;99.90;;;;;;5017582;28;20177;-80
2022/04/23 07:06:18;;;;;;;17.87;12.90;;;6.70;99.90;;;;;;5017234;28;20667;-79
2022/04/23 07:08:44;;;;;;;20.17;13.77;;;;;;;;;;5017037;28;20180;-78
2022/04/23 07:11:12;;;;;;;20.40;13.93;;;;;;;;;;5023163;28;20222;-79
2022/04/23 07:13:38;;;;;;;19.83;13.90;;;6.40;99.90;;;;;;5017060;28;20321;-79
2022/04/23 07:16:05;;;;;;;19.90;14.37;;;6.60;99.90;;;;;;5017117;28;20206;-79
2022/04/23 07:18:32;;;;;;;20.00;14.73;;;6.50;99.90;;;;;;5017624;28;20186;-79
2022/04/23 07:20:57;;;;;;;18.83;13.57;;;6.80;99.90;;;;;;5016909;28;20189;-78
2022/04/23 07:26:08;;;;;;;20.33;14.53;;;6.70;99.90;;;;;;5018048;28;20182;-80
2022/04/23 07:28:34;;;;;;;17.40;13.57;;;6.90;99.90;;;;;;5017271;28;20204;-78
2022/04/23 07:31:00;;;;;;;20.87;14.27;;;6.80;99.90;;;;;;5018585;28;20179;-77
2022/04/23 07:38:55;;;;;;;21.57;13.43;;;6.60;99.90;;;;;;5018025;28;20738;-78
2022/04/23 07:41:20;;;;;;;21.17;14.23;;;6.80;99.90;;;;;;5016934;28;20262;-77
2022/04/23 07:43:46;;;;;;;16.43;13.00;;;6.90;99.90;;;;;;5016707;28;20266;-77
2022/04/23 07:46:12;;;;;;;15.70;12.33;;;6.80;99.90;;;;;;5016954;28;20508;-77
2022/04/23 07:48:38;;;;;;;22.57;14.47;;;6.80;99.90;;;;;;5017112;28;20675;-78
2022/04/23 07:51:03;;;;;;;21.57;14.83;;;7.10;99.90;;;;;;5016760;28;20174;-77
2022/04/23 07:53:29;;;;;;;21.40;14.37;;;6.80;99.90;;;;;;5017001;28;20266;-78
2022/04/23 07:55:55;;;;;;;19.23;13.37;;;6.80;99.90;;;;;;5019606;28;20195;-78
2022/04/23 07:58:21;;;;;;;21.53;15.60;;;6.90;99.90;;;;;;5018421;28;20519;-78
2022/04/23 08:00:47;;;;;;;18.70;14.47;;;;;;;;;;5018250;28;20710;-78
2022/04/23 08:03:12;;;;;;;22.60;13.97;;;7.10;99.90;;;;;;5018591;28;20198;-79
2022/04/23 08:05:38;;;;;;;19.83;14.73;;;7.00;99.90;;;;;;5018575;28;20195;-78
2022/04/23 08:08:04;;;;;;;19.63;13.33;;;7.00;99.90;;;;;;5017353;28;20228;-78
2022/04/23 08:10:30;;;;;;;16.57;12.87;;;7.30;99.90;;;;;;5016327;28;20180;-78
2022/04/23 08:12:56;;;;;;;17.03;12.13;;;7.30;99.90;;;;;;5015290;28;20200;-78
2022/04/23 08:15:22;;;;;;;16.13;11.90;;;7.40;99.90;;;;;;5015006;28;20177;-79
2022/04/23 08:17:48;;;;;;;18.40;13.23;;;7.20;99.90;;;;;;5016324;28;20234;-79
2022/04/23 08:20:15;;;;;;;18.80;12.80;;;7.30;99.90;;;;;;5015444;28;20283;-79
2022/04/23 08:22:40;;;;;;;18.03;12.90;;;7.60;99.90;;;;;;5015393;28;20212;-78
2022/04/23 08:25:07;;;;;;;17.83;12.83;;;7.50;99.90;;;;;;5018778;28;20201;-79
2022/04/23 08:27:52;;;;;;;19.97;12.17;;;7.70;99.90;;;;;;5018474;28;20177;-78
2022/04/23 08:30:34;;;;;;;17.73;12.37;;;7.50;99.90;;;;;;5018277;28;20210;-78
2022/04/23 08:33:05;;;;;;;17.30;12.80;;;7.60;99.90;;;;;;5021039;28;20201;-79
2022/04/23 08:35:31;;;;;;;15.23;11.53;;;7.50;99.90;;;;;;5019937;28;20161;-78
2022/04/23 08:37:57;;;;;;;16.30;12.63;;;7.40;99.90;;;;;;5020492;28;20207;-78
2022/04/23 08:40:23;;;;;;;16.83;12.47;;;7.50;99.90;;;;;;5020081;28;20264;-78
2022/04/23 08:42:48;;;;;;;13.63;11.13;;;7.60;99.90;;;;;;5020595;28;20327;-78
2022/04/23 08:45:14;;;;;;;17.17;14.00;;;7.50;99.90;;;;;;5019214;28;20211;-78
2022/04/23 08:47:46;;;;;;;16.77;12.60;;;7.90;99.90;;;;;;5018058;28;20177;-78
2022/04/23 08:50:14;;;;;;;17.23;11.83;;;7.80;99.90;;;;;;5017311;28;20183;-78
2022/04/23 08:52:46;;;;;;;16.17;13.03;;;7.90;99.90;;;;;;5031312;28;20201;-78
2022/04/23 08:55:14;;;;;;;18.57;12.67;;;7.90;99.90;;;;;;5037171;28;20244;-79
2022/04/23 08:57:43;;;;;;;18.13;12.80;;;8.00;99.90;;;;;;5038249;28;20656;-79
2022/04/23 09:00:12;;;;;;;16.53;11.93;;;7.90;99.90;;;;;;5038217;28;20593;-79
2022/04/23 09:02:37;;;;;;;17.30;12.63;;;7.90;99.90;;;;;;5021372;28;20223;-79
2022/04/23 09:05:04;;;;;;;16.63;12.43;;;7.90;99.90;;;;;;5024574;28;20563;-80
2022/04/23 09:07:30;;;;;;;16.97;12.27;;;7.80;99.90;;;;;;5016977;28;20548;-78
2022/04/23 09:09:58;;;;;;;17.00;11.67;;;7.80;99.90;;;;;;5015884;28;20654;-80
2022/04/23 09:12:26;;;;;;;20.00;12.53;;;7.80;99.90;;;;;;5017198;28;20211;-79
2022/04/23 09:15:05;;;;;;;16.47;11.93;;;7.80;99.90;;;;;;5015896;28;20207;-79
2022/04/23 09:25:48;;;;;;;17.83;11.97;;;8.20;99.90;;;;;;5018927;28;20211;-79
2022/04/23 09:28:22;;;;;;;18.20;12.60;;;8.10;99.90;;;;;;5015503;28;20176;-79
2022/04/23 09:30:54;;;;;;;17.27;13.43;;;8.00;99.90;;;;;;5016945;28;20174;-80
2022/04/23 09:33:29;;;;;;;18.00;12.70;;;8.10;99.90;;;;;;5015824;28;20203;-80
2022/04/23 09:35:59;;;;;;;18.10;12.97;;;8.00;99.90;;;;;;5017501;28;20161;-78
2022/04/23 09:38:26;;;;;;;17.40;12.47;;;8.10;99.90;;;;;;5015951;28;20273;-79
2022/04/23 09:40:57;;;;;;;19.87;12.77;;;8.00;99.90;;;;;;5013437;28;20174;-79
2022/04/23 09:43:29;;;;;;;17.27;12.50;;;8.00;99.90;;;;;;5013949;28;20205;-78
2022/04/23 09:46:06;;;;;;;18.70;12.03;;;8.00;99.90;;;;;;5015875;28;20667;-78
2022/04/23 09:48:33;;;;;;;21.17;13.50;;;8.00;99.90;;;;;;5013970;28;20257;-79
2022/04/23 09:51:19;;;;;;;16.37;12.30;;;8.00;99.90;;;;;;5016149;28;20203;-79
2022/04/23 09:53:47;;;;;;;20.47;13.20;;;8.10;99.90;;;;;;5017248;28;20224;-79
2022/04/23 09:56:16;;;;;;;17.87;11.90;;;8.10;99.90;;;;;;5017562;28;20227;-79
2022/04/23 09:58:43;;;;;;;16.40;12.57;;;8.20;99.90;;;;;;5018193;28;20177;-79
2022/04/23 10:01:09;;;;;;;15.83;11.93;;;8.20;99.90;;;;;;5016800;28;20237;-79
2022/04/23 10:03:35;;;;;;;17.33;12.70;;;8.20;99.90;;;;;;5019052;28;20679;-78
2022/04/23 10:06:02;;;;;;;16.50;11.70;;;8.30;99.90;;;;;;5015962;28;20198;-78
2022/04/23 10:08:30;;;;;;;17.43;13.37;;;8.40;99.90;;;;;;5016861;28;20633;-78
2022/04/23 10:11:26;;;;;;;17.87;12.57;;;8.40;99.90;;;;;;5016046;28;20167;-78
2022/04/23 10:14:02;;;;;;;16.17;11.90;;;8.30;99.90;;;;;;5014461;28;20639;-78
2022/04/23 10:16:30;;;;;;;17.40;11.67;;;8.40;99.90;;;;;;5014040;28;20189;-78
2022/04/23 10:18:57;;;;;;;21.77;13.53;;;8.40;99.90;;;;;;5013792;28;20545;-78
2022/04/23 10:21:42;;;;;;;17.87;12.03;;;8.50;99.90;;;;;;5015772;28;20176;-79
2022/04/23 10:24:42;;;;;;;15.70;10.80;;;8.50;99.90;;;;;;5023974;28;20293;-78
2022/04/23 10:27:10;;;;;;;17.17;12.47;;;8.60;99.90;;;;;;5025144;28;20166;-79
2022/04/23 10:29:37;;;;;;;18.37;12.43;;;8.70;99.90;;;;;;5015016;28;20167;-79
2022/04/23 10:32:12;;;;;;;16.40;11.53;;;8.70;99.90;;;;;;5014010;28;20198;-79
2022/04/23 10:34:40;;;;;;;17.43;12.17;;;8.70;99.90;;;;;;5013981;28;20171;-79
2022/04/23 10:37:20;;;;;;;18.13;12.30;;;8.80;99.90;;;;;;5012821;28;20191;-79
2022/04/23 10:39:53;;;;;;;17.60;12.30;;;8.70;99.90;;;;;;5014104;28;20198;-79
2022/04/23 10:42:24;;;;;;;19.83;12.90;;;8.60;99.90;;;;;;5014307;28;20205;-78
2022/04/23 10:44:51;;;;;;;16.67;10.77;;;8.70;99.90;;;;;;5014268;28;20213;-78
2022/04/23 10:47:38;;;;;;;17.03;11.97;;;8.70;99.90;;;;;;5014392;28;20339;-78
2022/04/23 10:50:13;;;;;;;17.13;12.07;;;8.80;99.90;;;;;;4997305;28;20218;-79
2022/04/23 10:52:40;;;;;;;18.23;13.07;;;8.90;99.90;;;;;;5013683;28;20222;-79
2022/04/23 10:55:10;;;;;;;16.37;11.80;;;8.90;99.90;;;;;;5015007;28;20179;-79
2022/04/23 10:57:40;;;;;;;17.17;11.63;;;9.00;99.90;;;;;;5013978;28;20190;-78
2022/04/23 11:00:10;;;;;;;16.23;11.73;;;9.00;99.90;;;;;;5016890;28;20189;-79
2022/04/23 11:02:39;;;;;;;19.07;13.03;;;9.10;99.90;;;;;;5017781;28;20222;-79
2022/04/23 11:13:40;;;;;;;17.30;12.40;;;9.10;99.90;;;;;;5019887;28;20169;-78
2022/04/23 11:16:17;;;;;;;17.93;13.03;;;9.30;99.90;;;;;;5019167;28;20253;-78
2022/04/23 11:18:51;;;;;;;18.17;12.17;;;9.50;99.90;;;;;;5017487;28;20201;-78
2022/04/23 11:21:23;;;;;;;16.10;11.87;;;10.10;99.90;;;;;;5020401;28;20202;-79
2022/04/23 11:23:49;;;;;;;15.67;11.57;;;10.10;99.90;;;;;;5019241;28;20712;-79
2022/04/23 11:26:22;;;;;;;18.70;11.77;;;10.40;99.90;;;;;;5021230;28;20285;-79
2022/04/23 11:29:00;;;;;;;18.27;12.87;;;10.50;99.90;;;;;;5020370;28;20552;-78
2022/04/23 11:31:27;;;;;;;17.63;12.50;;;10.40;99.90;;;;;;5020713;28;20163;-79
2022/04/23 11:33:55;;;;;;;16.10;12.03;;;10.40;99.90;;;;;;5020948;28;20183;-79
2022/04/23 11:36:32;;;;;;;17.93;12.10;;;10.50;99.90;;;;;;5019334;28;20274;-79
2022/04/23 11:39:00;;;;;;;17.53;11.97;;;10.30;99.90;;;;;;5020280;28;20219;-79
2022/04/23 11:41:26;;;;;;;15.90;12.17;;;10.20;99.90;;;;;;5027299;28;20183;-81
2022/04/23 11:43:52;;;;;;;18.77;12.67;;;10.20;99.90;;;;;;5041124;28;20178;-79
2022/04/23 11:46:18;;;;;;;20.93;13.57;;;10.30;99.90;;;;;;5035990;28;20193;-79
2022/04/23 11:48:49;;;;;;;17.33;11.80;;;10.50;99.90;;;;;;5037494;28;20186;-79
2022/04/23 11:51:18;;;;;;;18.37;12.10;;;10.60;99.90;;;;;;5035785;28;20269;-78
2022/04/23 11:53:58;;;;;;;17.83;11.67;;;10.60;99.90;;;;;;5036989;28;20178;-78
2022/04/23 11:56:32;;;;;;;18.77;11.83;;;10.60;99.90;;;;;;5036858;28;20165;-79
2022/04/23 11:59:09;;;;;;;15.20;11.30;;;10.60;99.90;;;;;;5036004;28;20212;-80
2022/04/23 12:01:38;;;;;;;22.23;13.13;;;10.60;99.90;;;;;;5020635;28;20228;-80
2022/04/23 12:04:04;;;;;;;16.77;12.07;;;10.60;99.90;;;;;;5035144;28;20178;-80
2022/04/23 12:06:44;;;;;;;17.17;11.80;;;10.60;99.90;;;;;;5036700;28;20222;-79
2022/04/23 12:09:11;;;;;;;16.73;11.43;;;10.60;99.90;;;;;;5037164;28;20181;-79
2022/04/23 12:11:37;;;;;;;15.87;12.60;;;10.70;99.90;;;;;;5035760;28;20186;-80
2022/04/23 12:14:04;;;;;;;16.47;11.57;;;10.70;99.90;;;;;;5035436;28;20181;-79
2022/04/23 12:16:43;;;;;;;16.17;11.67;;;10.90;99.90;;;;;;5036735;28;20206;-79
2022/04/23 12:19:16;;;;;;;16.40;12.10;;;10.90;99.90;;;;;;5018929;28;20591;-79
2022/04/23 12:21:58;;;;;;;17.00;11.73;;;11.10;99.90;;;;;;5036444;28;20709;-80
2022/04/23 12:24:35;;;;;;;18.63;12.10;;;11.10;99.90;;;;;;5035600;28;20288;-79
2022/04/23 12:27:02;;;;;;;16.33;11.87;;;11.10;99.90;;;;;;5036482;28;20178;-79
2022/04/23 12:40:58;;;;;;;15.23;11.63;;;11.50;99.90;;;;;;5035229;28;20197;-80
2022/04/23 12:43:30;;;;;;;14.47;11.70;;;12.10;99.90;;;;;;5035982;28;20201;-80
2022/04/23 12:46:06;;;;;;;17.97;12.10;;;12.50;99.90;;;;;;5035027;28;20209;-79
2022/04/23 12:48:34;;;;;;;17.23;12.37;;;12.40;99.90;;;;;;5034951;28;20670;-79
2022/04/23 12:51:05;;;;;;;16.23;11.07;;;12.30;99.90;;;;;;5036226;28;20178;-78
2022/04/23 12:53:32;;;;;;;17.23;10.43;;;12.60;99.90;;;;;;5035806;28;20228;-79
2022/04/23 12:56:00;;;;;;;13.77;10.40;;;12.70;99.90;;;;;;5034606;28;20217;-79
2022/04/23 12:58:29;;;;;;;14.17;11.53;;;12.80;99.90;;;;;;5036040;28;20171;-79
2022/04/23 13:00:55;;;;;;;15.13;10.13;;;12.70;99.90;;;;;;5035786;28;20178;-80
2022/04/23 13:05:54;;;;;;;14.33;10.23;;;12.70;99.90;;;;;;5037530;28;20184;-79
2022/04/23 13:13:49;;;;;;;11.67;10.10;;;14.80;99.90;;;;;;5046116;28;20295;-79
2022/04/23 13:16:15;;;;;;;14.13;9.70;;;16.70;99.90;;;;;;5036213;28;20644;-80
2022/04/23 13:18:41;;;;;;;14.47;10.27;;;17.40;99.90;;;;;;5035566;28;20182;-80
2022/04/23 13:21:07;;;;;;;12.60;9.60;;;17.20;99.90;;;;;;5034231;28;20180;-80
2022/04/23 13:23:34;;;;;;;11.73;9.97;;;16.60;99.90;;;;;;5034870;28;20199;-80
2022/04/23 13:26:00;;;;;;;10.23;8.63;;;16.00;99.90;;;;;;5035178;28;20566;-80
2022/04/23 13:28:26;;;;;;;13.27;9.53;;;15.80;99.90;;;;;;5033780;28;20570;-80